createdAt,value
2022-10-07T00:00:48.903Z,16.08
2022-10-07T00:03:52.280Z,14.85
2022-10-07T00:07:00.321Z,16.85
2022-10-07T00:10:04.316Z,16.02
2022-10-07T00:13:08.491Z,13.23
2022-10-07T00:16:17.330Z,17.48
2022-10-07T00:19:21.159Z,17.27
2022-10-07T00:22:24.312Z,16.05
2022-10-07T00:25:27.379Z,17.17
2022-10-07T00:28:31.345Z,15.93
2022-10-07T00:31:36.626Z,15.65
2022-10-07T00:34:39.814Z,15.65
2022-10-07T00:37:43.533Z,15.73
2022-10-07T00:40:47.532Z,15.02
2022-10-07T00:43:50.717Z,16.10
2022-10-07T00:46:55.361Z,16.80
2022-10-07T00:50:35.775Z,14.88
2022-10-07T00:53:41.882Z,17.52
2022-10-07T00:56:46.712Z,15.27
2022-10-07T00:59:50.343Z,16.60
2022-10-07T01:02:53.892Z,20.60
2022-10-07T01:05:57.044Z,15.55
2022-10-07T01:09:00.314Z,15.10
2022-10-07T01:12:24.791Z,15.65
2022-10-07T01:15:53.337Z,15.73
2022-10-07T01:19:27.158Z,15.50
2022-10-07T01:22:33.283Z,16.98
2022-10-07T01:25:49.514Z,18.25
2022-10-07T01:29:02.563Z,16.67
2022-10-07T01:32:32.548Z,21.10
2022-10-07T01:35:41.086Z,16.25
2022-10-07T01:38:53.090Z,15.98
2022-10-07T01:41:57.538Z,16.50
2022-10-07T01:45:03.066Z,15.07
2022-10-07T01:48:06.680Z,16.83
2022-10-07T01:51:10.470Z,15.90
2022-10-07T01:54:27.544Z,18.48
2022-10-07T01:58:06.760Z,17.30
2022-10-07T02:01:27.255Z,16.95
2022-10-07T02:04:35.102Z,17.50
2022-10-07T02:07:47.943Z,16.13
2022-10-07T02:11:15.126Z,15.63
2022-10-07T02:14:29.419Z,18.08
2022-10-07T02:17:37.509Z,13.73
2022-10-07T02:20:42.772Z,15.90
2022-10-07T02:23:48.276Z,16.75
2022-10-07T02:26:54.187Z,15.93
2022-10-07T02:30:04.891Z,15.27
2022-10-07T02:33:11.158Z,16.77
2022-10-07T02:36:22.349Z,18.83
2022-10-07T02:39:25.675Z,16.88
2022-10-07T02:42:53.840Z,14.55
2022-10-07T02:46:08.031Z,15.85
2022-10-07T02:49:15.363Z,16.35
2022-10-07T02:52:20.225Z,15.60
2022-10-07T02:55:27.459Z,17.02
2022-10-07T02:58:30.922Z,16.83
2022-10-07T03:01:41.740Z,16.10
2022-10-07T03:04:45.200Z,18.90
2022-10-07T03:07:52.457Z,20.87
2022-10-07T03:10:56.664Z,17.88
2022-10-07T03:14:00.456Z,18.70
2022-10-07T03:17:04.127Z,18.35
2022-10-07T03:20:09.224Z,17.92
2022-10-07T03:23:13.140Z,17.97
2022-10-07T03:26:17.462Z,17.60
2022-10-07T03:29:21.617Z,18.05
2022-10-07T03:32:27.258Z,17.98
2022-10-07T03:35:31.605Z,21.38
2022-10-07T03:38:35.983Z,20.57
2022-10-07T03:41:39.823Z,17.63
2022-10-07T03:44:43.516Z,24.10
2022-10-07T03:47:46.901Z,19.33
2022-10-07T03:50:54.796Z,19.13
2022-10-07T03:54:00.939Z,20.53
2022-10-07T03:57:27.746Z,20.45
2022-10-07T04:00:32.407Z,21.70
2022-10-07T04:03:35.648Z,19.90
2022-10-07T04:06:41.157Z,21.40
2022-10-07T04:09:47.325Z,19.00
2022-10-07T04:12:53.922Z,22.83
2022-10-07T04:15:57.707Z,22.17
2022-10-07T04:19:02.757Z,20.67
2022-10-07T04:22:08.948Z,23.13
2022-10-07T04:25:32.458Z,22.00
2022-10-07T04:28:38.069Z,23.13
2022-10-07T04:31:46.248Z,22.02
2022-10-07T04:34:53.079Z,22.77
2022-10-07T04:37:57.191Z,24.75
2022-10-07T04:41:07.243Z,22.80
2022-10-07T04:44:12.434Z,24.10
2022-10-07T04:47:23.710Z,22.15
2022-10-07T04:50:27.987Z,27.48
2022-10-07T04:53:35.327Z,23.83
2022-10-07T04:56:39.192Z,25.43
2022-10-07T04:59:44.639Z,29.58
2022-10-07T05:02:51.542Z,25.20
2022-10-07T05:06:06.081Z,27.85
2022-10-07T05:09:12.425Z,26.65
2022-10-07T05:12:19.020Z,26.47
2022-10-07T05:15:22.419Z,27.83
2022-10-07T05:18:27.157Z,26.77
2022-10-07T05:21:33.481Z,27.50
2022-10-07T05:24:37.631Z,26.05
2022-10-07T05:27:41.048Z,24.87
2022-10-07T05:30:47.859Z,25.10
2022-10-07T05:33:53.428Z,24.88
2022-10-07T05:36:59.424Z,24.27
2022-10-07T05:40:04.996Z,24.27
2022-10-07T05:43:10.914Z,26.17
2022-10-07T05:46:17.594Z,23.02
2022-10-07T05:49:27.818Z,23.13
2022-10-07T05:52:31.690Z,26.60
2022-10-07T05:55:40.166Z,26.02
2022-10-07T05:58:55.457Z,28.77
2022-10-07T06:02:16.309Z,25.25
2022-10-07T06:05:23.216Z,27.00
2022-10-07T06:08:29.523Z,21.40
2022-10-07T06:11:54.165Z,24.40
2022-10-07T06:14:57.417Z,26.60
2022-10-07T06:18:03.851Z,23.52
2022-10-07T06:21:11.560Z,22.25
2022-10-07T06:24:18.251Z,27.42
2022-10-07T06:27:30.955Z,26.50
2022-10-07T06:30:40.504Z,29.80
2022-10-07T06:33:50.199Z,26.35
2022-10-07T06:36:54.973Z,25.65
2022-10-07T06:40:08.960Z,26.52
2022-10-07T06:43:26.885Z,28.38
2022-10-07T06:46:39.558Z,25.30
2022-10-07T06:49:47.121Z,25.23
2022-10-07T06:52:50.613Z,26.75
2022-10-07T06:55:58.775Z,26.55
2022-10-07T06:59:07.819Z,26.02
2022-10-07T07:02:37.908Z,26.77
2022-10-07T07:05:46.400Z,24.98
2022-10-07T07:08:58.516Z,23.42
2022-10-07T07:12:08.476Z,23.42
2022-10-07T07:15:16.031Z,22.15
2022-10-07T07:18:23.144Z,21.13
2022-10-07T07:21:28.832Z,23.13
2022-10-07T07:24:34.142Z,23.52
2022-10-07T07:27:37.412Z,22.30
2022-10-07T07:30:41.064Z,23.67
2022-10-07T07:33:52.470Z,20.97
2022-10-07T07:36:57.327Z,22.95
2022-10-07T07:40:06.411Z,25.02
2022-10-07T07:43:18.069Z,19.95
2022-10-07T07:46:28.642Z,19.25
2022-10-07T07:49:35.960Z,22.17
2022-10-07T07:52:42.266Z,20.88
2022-10-07T07:55:56.008Z,20.02
2022-10-07T07:59:01.496Z,21.67
2022-10-07T08:02:05.790Z,17.25
2022-10-07T08:05:10.343Z,16.90
2022-10-07T08:08:14.833Z,17.42
2022-10-07T08:11:21.875Z,16.63
2022-10-07T08:14:25.591Z,14.77
2022-10-07T08:17:30.246Z,16.23
2022-10-07T08:20:35.131Z,17.63
2022-10-07T08:23:41.611Z,16.63
2022-10-07T08:26:48.169Z,13.68
2022-10-07T08:29:54.619Z,15.55
2022-10-07T08:33:01.419Z,13.73
2022-10-07T08:36:06.109Z,15.53
2022-10-07T08:39:09.483Z,12.85
2022-10-07T08:42:37.127Z,14.88
2022-10-07T08:45:40.376Z,15.98
2022-10-07T08:48:52.215Z,19.30
2022-10-07T08:52:01.583Z,10.90
2022-10-07T08:55:22.589Z,14.63
2022-10-07T08:58:38.129Z,13.23
2022-10-07T09:02:06.503Z,11.15
2022-10-07T09:05:21.366Z,12.07
2022-10-07T09:08:40.301Z,10.93
2022-10-07T09:11:48.340Z,12.20
2022-10-07T09:14:55.778Z,11.45
2022-10-07T09:18:07.821Z,10.60
2022-10-07T09:21:23.636Z,9.52
2022-10-07T09:24:30.513Z,9.97
2022-10-07T09:27:33.844Z,9.18
2022-10-07T09:30:37.341Z,9.60
2022-10-07T09:33:46.544Z,11.07
2022-10-07T09:37:10.956Z,9.32
2022-10-07T09:40:30.996Z,10.90
2022-10-07T09:43:35.439Z,13.18
2022-10-07T09:46:54.611Z,10.25
2022-10-07T09:49:59.916Z,12.23
2022-10-07T09:53:04.275Z,11.35
2022-10-07T09:56:27.341Z,10.73
2022-10-07T09:59:36.061Z,10.60
2022-10-07T10:02:43.011Z,11.38
2022-10-07T10:06:00.941Z,10.75
2022-10-07T10:09:04.257Z,13.20
2022-10-07T10:12:15.010Z,12.27
2022-10-07T10:15:27.211Z,15.45
2022-10-07T10:18:35.802Z,15.27
2022-10-07T10:21:42.694Z,10.70
2022-10-07T10:25:04.698Z,12.25
2022-10-07T10:28:20.455Z,14.27
2022-10-07T10:31:41.194Z,10.95
2022-10-07T10:34:53.811Z,11.25
2022-10-07T10:38:15.659Z,13.20
2022-10-07T10:41:37.020Z,10.88
2022-10-07T10:45:22.364Z,9.70
2022-10-07T10:48:58.080Z,9.77
2022-10-07T10:52:27.928Z,10.88
2022-10-07T10:55:55.400Z,10.25
2022-10-07T10:59:21.250Z,9.30
2022-10-07T11:02:29.466Z,7.50
2022-10-07T11:05:36.739Z,9.55
2022-10-07T11:08:41.199Z,8.07
2022-10-07T11:11:45.585Z,7.63
2022-10-07T11:14:57.895Z,6.93
2022-10-07T11:21:46.161Z,9.00
2022-10-07T11:24:56.964Z,7.07
2022-10-07T11:28:09.050Z,7.82
2022-10-07T11:31:21.384Z,7.72
2022-10-07T11:34:40.466Z,8.20
2022-10-07T11:37:58.871Z,7.10
2022-10-07T11:41:33.168Z,6.20
2022-10-07T11:45:03.313Z,6.43
2022-10-07T11:48:13.905Z,8.02
2022-10-07T11:51:29.304Z,7.63
2022-10-07T11:54:59.446Z,7.60
2022-10-07T11:58:04.332Z,6.28
2022-10-07T12:01:39.118Z,10.02
2022-10-07T12:04:42.456Z,10.13
2022-10-07T12:08:32.079Z,6.03
2022-10-07T12:11:56.385Z,6.93
2022-10-07T12:15:02.461Z,8.52
2022-10-07T12:18:05.645Z,6.93
2022-10-07T12:21:13.108Z,10.60
2022-10-07T12:24:16.474Z,6.60
2022-10-07T12:27:28.989Z,7.90
2022-10-07T12:30:48.918Z,6.75
2022-10-07T12:34:09.793Z,6.82
2022-10-07T12:37:40.596Z,5.78
2022-10-07T12:41:14.917Z,7.50
2022-10-07T12:44:33.454Z,9.32
2022-10-07T12:47:38.583Z,13.30
2022-10-07T12:50:43.448Z,6.05
2022-10-07T12:53:48.337Z,9.50
2022-10-07T12:56:51.612Z,7.80
2022-10-07T12:59:59.945Z,6.82
2022-10-07T13:03:34.891Z,6.88
2022-10-07T13:07:05.231Z,8.15
2022-10-07T13:10:20.458Z,8.85
2022-10-07T13:13:29.516Z,7.63
2022-10-07T13:16:39.512Z,12.45
2022-10-07T13:19:48.299Z,7.40
2022-10-07T13:22:51.772Z,6.63
2022-10-07T13:25:58.995Z,7.65
2022-10-07T13:29:02.338Z,10.07
2022-10-07T13:32:11.641Z,5.45
2022-10-07T13:35:34.066Z,9.13
2022-10-07T13:38:39.472Z,7.03
2022-10-07T13:41:47.813Z,8.02
2022-10-07T13:44:51.023Z,6.77
2022-10-07T13:47:54.722Z,7.43
2022-10-07T13:50:59.730Z,5.03
2022-10-07T13:54:06.727Z,7.60
2022-10-07T13:57:13.101Z,6.20
2022-10-07T14:00:19.222Z,6.57
2022-10-07T14:03:22.493Z,7.07
2022-10-07T14:06:49.002Z,7.70
2022-10-07T14:10:00.988Z,6.43
2022-10-07T14:13:09.176Z,9.17
2022-10-07T14:16:25.879Z,7.30
2022-10-07T14:19:33.514Z,12.02
2022-10-07T14:22:41.870Z,7.10
2022-10-07T14:25:47.694Z,8.52
2022-10-07T14:28:50.993Z,7.33
2022-10-07T14:32:29.235Z,5.18
2022-10-07T14:35:33.972Z,5.68
2022-10-07T14:38:37.950Z,7.13
2022-10-07T14:41:41.088Z,10.23
2022-10-07T14:44:44.885Z,8.83
2022-10-07T14:47:49.136Z,7.25
2022-10-07T14:50:52.604Z,6.65
2022-10-07T14:54:02.759Z,9.05
2022-10-07T14:57:05.835Z,10.93
2022-10-07T15:00:20.801Z,8.20
2022-10-07T15:03:24.369Z,10.02
2022-10-07T15:06:29.271Z,7.65
2022-10-07T15:09:32.429Z,7.20
2022-10-07T15:12:36.976Z,6.82
2022-10-07T15:15:45.165Z,6.13
2022-10-07T15:18:52.473Z,6.63
2022-10-07T15:21:56.369Z,9.82
2022-10-07T15:24:59.568Z,7.38
2022-10-07T15:28:03.295Z,7.53
2022-10-07T15:31:08.617Z,7.20
2022-10-07T15:34:14.026Z,8.85
2022-10-07T15:37:17.536Z,7.88
2022-10-07T15:40:21.019Z,8.98
2022-10-07T15:43:24.324Z,6.82
2022-10-07T15:46:28.213Z,9.70
2022-10-07T15:49:32.233Z,6.32
2022-10-07T15:52:35.464Z,7.70
2022-10-07T15:55:38.685Z,8.23
2022-10-07T15:58:41.806Z,8.68
2022-10-07T16:01:44.953Z,7.53
2022-10-07T16:04:48.611Z,9.95
2022-10-07T16:07:51.880Z,6.88
2022-10-07T16:10:55.196Z,7.18
2022-10-07T16:14:02.672Z,11.25
2022-10-07T16:17:05.869Z,8.67
2022-10-07T16:20:11.509Z,8.23
2022-10-07T16:23:14.976Z,8.65
2022-10-07T16:26:23.056Z,9.50
2022-10-07T16:29:44.879Z,9.93
2022-10-07T16:32:49.444Z,12.03
2022-10-07T16:35:59.371Z,11.23
2022-10-07T16:39:03.910Z,10.52
2022-10-07T16:42:07.505Z,10.23
2022-10-07T16:45:10.925Z,9.40
2022-10-07T16:48:17.349Z,11.33
2022-10-07T16:51:22.840Z,11.95
2022-10-07T16:54:29.747Z,13.40
2022-10-07T16:57:33.095Z,10.73
2022-10-07T17:00:36.372Z,10.98
2022-10-07T17:03:40.923Z,10.73
2022-10-07T17:06:46.211Z,10.85
2022-10-07T17:09:49.334Z,8.80
2022-10-07T17:12:52.431Z,12.63
2022-10-07T17:15:55.723Z,11.38
2022-10-07T17:18:58.966Z,10.83
2022-10-07T17:22:04.024Z,12.05
2022-10-07T17:25:07.914Z,13.23
2022-10-07T17:28:11.143Z,13.23
2022-10-07T17:31:14.891Z,14.73
2022-10-07T17:34:20.002Z,16.50
2022-10-07T17:37:23.114Z,13.73
2022-10-07T17:40:30.038Z,14.55
2022-10-07T17:43:33.124Z,15.65
2022-10-07T17:46:39.304Z,13.75
2022-10-07T17:49:42.684Z,16.37
2022-10-07T17:52:45.832Z,16.85
2022-10-07T17:55:52.874Z,14.40
2022-10-07T17:58:57.217Z,19.08
2022-10-07T18:02:00.376Z,19.27
2022-10-07T18:05:03.684Z,22.10
2022-10-07T18:08:06.947Z,15.55
2022-10-07T18:11:10.577Z,18.65
2022-10-07T18:14:32.507Z,21.75
2022-10-07T18:17:36.803Z,16.40
2022-10-07T18:20:41.507Z,22.97
2022-10-07T18:23:44.687Z,18.75
2022-10-07T18:26:47.902Z,18.20
2022-10-07T18:29:51.436Z,17.63
2022-10-07T18:32:54.570Z,17.88
2022-10-07T18:36:15.176Z,23.80
2022-10-07T18:39:18.500Z,18.48
2022-10-07T18:42:21.777Z,18.20
2022-10-07T18:45:25.362Z,18.08
2022-10-07T18:48:32.743Z,23.52
2022-10-07T18:51:36.139Z,18.37
2022-10-07T18:54:39.385Z,22.20
2022-10-07T18:57:42.610Z,17.98
2022-10-07T19:00:46.910Z,18.50
2022-10-07T19:03:56.008Z,19.88
2022-10-07T19:06:59.205Z,19.97
2022-10-07T19:10:03.049Z,17.05
2022-10-07T19:13:24.720Z,17.70
2022-10-07T19:16:36.257Z,19.27
2022-10-07T19:19:41.207Z,18.50
2022-10-07T19:22:45.410Z,20.17
2022-10-07T19:25:48.651Z,21.33
2022-10-07T19:28:53.478Z,24.00
2022-10-07T19:31:57.477Z,20.77
2022-10-07T19:35:00.754Z,17.77
2022-10-07T19:38:07.770Z,20.07
2022-10-07T19:41:16.338Z,22.08
2022-10-07T19:44:19.696Z,24.35
2022-10-07T19:47:22.853Z,20.90
2022-10-07T19:50:26.025Z,18.67
2022-10-07T19:53:33.697Z,20.27
2022-10-07T19:56:38.003Z,18.70
2022-10-07T19:59:41.429Z,23.08
2022-10-07T20:02:44.605Z,20.92
2022-10-07T20:05:47.832Z,21.67
2022-10-07T20:08:51.256Z,17.70
2022-10-07T20:11:55.888Z,16.95
2022-10-07T20:14:58.976Z,21.05
2022-10-07T20:18:03.874Z,16.92
2022-10-07T20:21:11.365Z,22.52
2022-10-07T20:24:16.412Z,21.67
2022-10-07T20:27:20.002Z,20.08
2022-10-07T20:30:23.140Z,18.95
2022-10-07T20:33:26.252Z,17.42
2022-10-07T20:36:32.572Z,15.93
2022-10-07T20:39:54.392Z,15.33
2022-10-07T20:43:00.503Z,15.93
2022-10-07T20:46:03.750Z,16.35
2022-10-07T20:49:21.682Z,18.30
2022-10-07T20:52:27.408Z,16.42
2022-10-07T20:55:35.448Z,15.87
2022-10-07T20:58:39.311Z,17.65
2022-10-07T21:01:44.169Z,19.85
2022-10-07T21:04:48.071Z,16.83
2022-10-07T21:07:54.718Z,20.02
2022-10-07T21:11:05.023Z,16.97
2022-10-07T21:14:08.091Z,17.15
2022-10-07T21:17:11.959Z,17.92
2022-10-07T21:20:15.432Z,16.80
2022-10-07T21:23:18.651Z,18.23
2022-10-07T21:26:22.497Z,19.40
2022-10-07T21:29:31.310Z,16.08
2022-10-07T21:32:34.494Z,17.88
2022-10-07T21:35:37.650Z,17.85
2022-10-07T21:38:40.721Z,19.50
2022-10-07T21:41:43.909Z,16.60
2022-10-07T21:44:47.287Z,19.90
2022-10-07T21:47:50.540Z,18.40
2022-10-07T21:50:58.036Z,18.10
2022-10-07T21:54:02.028Z,17.85
2022-10-07T21:57:05.239Z,16.63
2022-10-07T22:00:12.228Z,17.80
2022-10-07T22:03:15.396Z,18.63
2022-10-07T22:06:18.515Z,18.50
2022-10-07T22:09:21.748Z,22.33
2022-10-07T22:12:25.237Z,16.13
2022-10-07T22:15:28.690Z,18.05
2022-10-07T22:18:33.524Z,17.98
2022-10-07T22:21:40.129Z,17.77
2022-10-07T22:24:43.494Z,18.00
2022-10-07T22:27:51.243Z,17.17
2022-10-07T22:30:54.375Z,19.10
2022-10-07T22:33:59.447Z,20.75
2022-10-07T22:37:03.098Z,19.13
2022-10-07T22:40:06.815Z,22.50
2022-10-07T22:43:09.947Z,18.80
2022-10-07T22:46:18.581Z,16.63
2022-10-07T22:49:24.847Z,19.13
2022-10-07T22:52:32.156Z,19.95
2022-10-07T22:55:37.187Z,19.10
2022-10-07T22:58:42.200Z,21.00
2022-10-07T23:01:45.290Z,21.17
2022-10-07T23:04:48.489Z,18.45
2022-10-07T23:07:51.678Z,22.25
2022-10-07T23:10:59.152Z,18.67
2022-10-07T23:14:02.256Z,17.67
2022-10-07T23:17:05.351Z,18.45
2022-10-07T23:20:08.909Z,20.13
2022-10-07T23:23:12.153Z,23.60
2022-10-07T23:26:22.935Z,18.48
2022-10-07T23:29:26.587Z,19.23
2022-10-07T23:32:29.724Z,20.88
2022-10-07T23:35:32.817Z,19.67
2022-10-07T23:38:39.730Z,20.65
2022-10-07T23:41:42.895Z,22.58
2022-10-07T23:44:45.972Z,18.57
2022-10-07T23:47:49.100Z,19.33
2022-10-07T23:50:53.747Z,18.40
2022-10-07T23:53:57.607Z,25.08
2022-10-07T23:57:00.700Z,23.83
